Bedford Park, Illinois
Current Conditions -  °F | °C
As of 5:53 PM on Saturday 20 Dec 2014 (Local Time) from KMDW Reporting Station
Light Snow Light Snow  
Wind Chill: 29°   Ceiling: 6000
Heat Index: 34°   Visibility: 10mi
Dew Point: 26°   Wind: 6mph
Humidity: 73%   Direction: 190°S
Pressure: 30.27"   Gusts: NA
Location:  41.76°N, 87.8°W
Report Text: KMDW 202353Z 19005KT 10SM -SN SCT046 OVC060 01/M03 A3027 RMK AO2 SNB50 SLP260 P0000 60000 T00111033 10017 20011 51008
Loading
Personal Weather Stations






























Interactive Weather Map New forecast layout! Learn more

10-Day Weather Forecast

Advertisements
Track Severe Weather on mobile